Time;durP1;ratioP1;P1;durP2;ratioP2;P2;SDS_P1;SDS_P2;PMS_P1;PMS_P2;Temp;Humidity;BMP_temperature;BMP_pressure;BME280_temperature;BME280_humidity;BME280_pressure;Samples;Min_cycle;Max_cycle;Signal;HPM_P1;HPM_P2
2023/04/08 00:01:20;;;;;;;7.85;5.88;;;;;;;;;;5075410;28;20119;-73
2023/04/08 00:03:46;;;;;;;11.35;7.07;;;;;;;;;;5077023;28;20538;-73
2023/04/08 00:06:12;;;;;;;10.48;6.40;;;;;;;;;;5087035;28;20040;-73
2023/04/08 00:08:38;;;;;;;8.57;6.45;;;;;;;;;;5073460;28;20090;-74
2023/04/08 00:11:05;;;;;;;6.80;5.07;;;;;;;;;;5057373;28;20098;-74
2023/04/08 00:13:31;;;;;;;7.88;5.82;;;;;;;;;;5061480;28;20071;-73
2023/04/08 00:15:58;;;;;;;8.25;5.57;;;;;;;;;;5074267;28;20093;-73
2023/04/08 00:18:24;;;;;;;8.15;5.50;;;;;;;;;;5063913;28;20127;-73
2023/04/08 00:20:50;;;;;;;6.53;5.22;;;;;;;;;;5075372;28;20115;-73
2023/04/08 00:23:16;;;;;;;8.57;5.72;;;;;;;;;;5070447;28;20472;-73
2023/04/08 00:25:43;;;;;;;8.60;6.22;;;;;;;;;;5054732;28;20044;-73
2023/04/08 00:28:09;;;;;;;8.98;6.03;;;;;;;;;;5079686;28;20514;-73
2023/04/08 00:30:35;;;;;;;10.77;6.25;;;;;;;;;;5070032;28;20802;-73
2023/04/08 00:33:01;;;;;;;;;;;;;;;;;;5057404;28;20032;-72
2023/04/08 00:35:28;;;;;;;8.75;6.65;;;;;;;;;;5070700;28;19924;-72
2023/04/08 00:37:54;;;;;;;9.38;6.68;;;;;;;;;;5084186;28;20151;-73
2023/04/08 00:40:20;;;;;;;7.63;6.25;;;;;;;;;;5054943;28;20055;-73
2023/04/08 00:42:46;;;;;;;6.47;5.38;;;;;;;;;;5072258;28;20052;-74
2023/04/08 00:45:12;;;;;;;7.65;5.90;;;;;;;;;;5070985;28;20040;-73
2023/04/08 00:47:39;;;;;;;6.32;5.13;;;;;;;;;;5079345;28;20043;-74
2023/04/08 00:50:09;;;;;;;7.95;5.40;;;;;;;;;;5075680;28;20044;-74
2023/04/08 00:52:35;;;;;;;7.45;5.95;;;;;;;;;;5068137;28;20053;-74
2023/04/08 00:55:01;;;;;;;7.93;6.03;;;;;;;;;;5056808;28;20484;-73
2023/04/08 00:57:27;;;;;;;6.40;4.75;;;;;;;;;;5058634;28;20891;-73
2023/04/08 00:59:53;;;;;;;6.22;5.20;;;;;;;;;;5074619;28;20056;-74
2023/04/08 01:02:23;;;;;;;7.03;5.45;;;;;;;;;;5057852;28;20037;-74
2023/04/08 01:04:49;;;;;;;6.72;5.32;;;;;;;;;;5075030;28;20036;-74
2023/04/08 01:07:21;;;;;;;8.20;5.82;;;;;;;;;;5086050;28;20048;-74
2023/04/08 01:09:49;;;;;;;7.75;5.20;;;;;;;;;;5080754;28;20040;-73
2023/04/08 01:12:21;;;;;;;9.35;6.30;;;;;;;;;;5070442;28;20495;-74
2023/04/08 01:14:48;;;;;;;7.70;6.15;;;;;;;;;;5087534;28;20047;-74
2023/04/08 01:17:14;;;;;;;7.50;5.90;;;;;;;;;;5091361;28;20086;-74
2023/04/08 01:19:43;;;;;;;6.60;5.10;;;;;;;;;;5092382;28;20129;-73
2023/04/08 01:22:15;;;;;;;8.40;5.88;;;;;;;;;;5085388;28;20055;-74
2023/04/08 01:24:43;;;;;;;5.60;4.70;;;;;;;;;;5079307;28;20088;-74
2023/04/08 01:27:10;;;;;;;6.60;4.68;;;;;;;;;;5091545;28;20047;-74
2023/04/08 01:29:36;;;;;;;8.57;5.50;;;;;;;;;;5093738;28;20047;-74
2023/04/08 01:32:02;;;;;;;;;;;;;;;;;;5060630;28;20084;-74
2023/04/08 01:34:29;;;;;;;5.65;4.47;;;;;;;;;;5085684;28;20009;-73
2023/04/08 01:36:55;;;;;;;;;;;;;;;;;;5074139;28;20174;-74
2023/04/08 01:39:22;;;;;;;8.93;6.82;;;;;;;;;;5055217;28;20010;-74
2023/04/08 01:41:48;;;;;;;6.60;5.68;;;;;;;;;;5077768;28;20101;-71
2023/04/08 01:44:15;;;;;;;8.50;6.97;;;;;;;;;;5086503;28;20101;-73
2023/04/08 01:46:42;;;;;;;8.02;6.22;;;;;;;;;;5071846;28;20074;-72
2023/04/08 01:49:08;;;;;;;8.18;6.50;;;;;;;;;;5072633;28;20110;-72
2023/04/08 01:51:34;;;;;;;8.15;6.70;;;;;;;;;;5071526;28;20055;-73
2023/04/08 01:54:00;;;;;;;8.27;5.95;;;;;;;;;;5085643;28;20522;-73
2023/04/08 01:56:28;;;;;;;7.22;5.90;;;;;;;;;;5073646;28;20145;-72
2023/04/08 01:58:55;;;;;;;6.30;5.25;;;;;;;;;;5089225;28;20384;-72
2023/04/08 02:01:25;;;;;;;6.93;5.68;;;;;;;;;;5092039;28;20040;-73
2023/04/08 02:03:55;;;;;;;6.55;5.53;;;;;;;;;;5077908;28;20067;-73
2023/04/08 02:06:21;;;;;;;6.93;5.63;;;;;;;;;;5089891;28;20050;-73
2023/04/08 02:08:47;;;;;;;6.57;5.30;;;;;;;;;;5091116;28;20040;-73
2023/04/08 02:11:13;;;;;;;6.95;5.25;;;;;;;;;;5091209;28;20066;-72
2023/04/08 02:13:39;;;;;;;7.38;6.00;;;;;;;;;;5065584;28;20076;-72
2023/04/08 02:16:16;;;;;;;8.75;7.32;;;;;;;;;;5073997;28;20801;-73
2023/04/08 02:18:42;;;;;;;;;;;;;;;;;;5082931;28;20135;-73
2023/04/08 02:21:14;;;;;;;9.02;6.97;;;;;;;;;;5080006;28;20264;-73
2023/04/08 02:23:40;;;;;;;8.65;7.13;;;;;;;;;;5081606;28;20377;-73
2023/04/08 02:26:07;;;;;;;;;;;;;;;;;;5091009;28;20109;-73
2023/04/08 02:28:34;;;;;;;10.38;7.55;;;;;;;;;;5076867;28;19956;-73
2023/04/08 02:31:00;;;;;;;9.77;7.80;;;;;;;;;;5091016;28;20534;-72
2023/04/08 02:33:27;;;;;;;9.10;7.15;;;;;;;;;;5072228;28;20044;-73
2023/04/08 02:35:56;;;;;;;;;;;;;;;;;;5090906;28;20047;-72
2023/04/08 02:38:22;;;;;;;9.25;6.70;;;;;;;;;;5085965;28;20007;-72
2023/04/08 02:40:48;;;;;;;;;;;;;;;;;;5071142;28;20479;-72
2023/04/08 02:43:15;;;;;;;9.57;6.65;;;;;;;;;;5075741;28;19947;-72
2023/04/08 02:45:42;;;;;;;8.05;6.57;;;;;;;;;;5090040;28;20615;-72
2023/04/08 02:48:08;;;;;;;8.65;6.88;;;;;;;;;;5073370;28;20135;-72
2023/04/08 02:50:34;;;;;;;8.13;6.32;;;;;;;;;;5090865;28;20051;-73
2023/04/08 02:53:00;;;;;;;6.32;5.57;;;;;;;;;;5088525;28;20097;-72
2023/04/08 02:55:26;;;;;;;6.13;5.38;;;;;;;;;;5070971;28;20115;-72
2023/04/08 02:57:52;;;;;;;5.57;4.97;;;;;;;;;;5054705;28;20131;-73
2023/04/08 03:00:19;;;;;;;8.00;5.72;;;;;;;;;;5070215;28;20048;-73
2023/04/08 03:02:45;;;;;;;9.40;7.78;;;;;;;;;;5053824;28;20044;-73
2023/04/08 03:05:11;;;;;;;10.02;7.90;;;;;;;;;;5089619;28;20043;-73
2023/04/08 03:07:37;;;;;;;10.15;8.07;;;;;;;;;;5089402;28;20119;-72
2023/04/08 03:10:03;;;;;;;9.95;6.70;;;;;;;;;;5087986;28;20040;-73
2023/04/08 03:12:30;;;;;;;6.80;5.65;;;;;;;;;;5072383;28;20060;-73
2023/04/08 03:14:56;;;;;;;6.70;5.63;;;;;;;;;;5087842;28;20062;-72
2023/04/08 03:17:22;;;;;;;7.15;6.07;;;;;;;;;;5090270;28;20044;-72
2023/04/08 03:19:48;;;;;;;8.55;7.05;;;;;;;;;;5067860;28;20155;-71
2023/04/08 03:22:14;;;;;;;9.88;7.47;;;;;;;;;;5090234;28;20036;-72
2023/04/08 03:24:40;;;;;;;8.10;6.45;;;;;;;;;;5077713;28;20041;-72
2023/04/08 03:27:07;;;;;;;6.80;5.88;;;;;;;;;;5059269;28;20044;-72
2023/04/08 03:29:33;;;;;;;;;;;;;;;;;;5060300;28;20425;-72
2023/04/08 03:31:59;;;;;;;6.65;5.93;;;;;;;;;;5075462;28;19920;-72
2023/04/08 03:34:25;;;;;;;9.63;7.18;;;;;;;;;;5076369;28;20036;-73
2023/04/08 03:36:51;;;;;;;9.00;6.80;;;;;;;;;;5075834;28;20095;-73
2023/04/08 03:39:17;;;;;;;7.57;6.40;;;;;;;;;;5058727;28;20051;-73
2023/04/08 03:41:43;;;;;;;9.18;6.95;;;;;;;;;;5077743;28;20388;-73
2023/04/08 03:44:09;;;;;;;10.68;8.10;;;;;;;;;;5079494;28;20183;-73
2023/04/08 03:46:35;;;;;;;9.02;6.88;;;;;;;;;;5073264;28;20044;-73
2023/04/08 03:49:01;;;;;;;8.30;6.93;;;;;;;;;;5082730;28;20048;-73
2023/04/08 03:51:27;;;;;;;8.77;7.38;;;;;;;;;;5072984;28;20052;-72
2023/04/08 03:53:53;;;;;;;8.70;6.70;;;;;;;;;;5087804;28;20115;-72
2023/04/08 03:56:20;;;;;;;8.00;6.32;;;;;;;;;;5069411;28;20064;-73
2023/04/08 03:58:46;;;;;;;8.63;6.53;;;;;;;;;;5084390;28;20048;-73
2023/04/08 04:01:12;;;;;;;8.25;6.38;;;;;;;;;;5074096;28;20520;-72
2023/04/08 04:03:38;;;;;;;9.55;7.18;;;;;;;;;;5084956;28;20788;-74
2023/04/08 04:06:05;;;;;;;9.73;7.05;;;;;;;;;;5071859;28;20036;-74
2023/04/08 04:08:31;;;;;;;8.63;6.80;;;;;;;;;;5077141;28;20147;-73
2023/04/08 04:10:58;;;;;;;7.15;5.38;;;;;;;;;;5071973;28;20059;-73
2023/04/08 04:13:24;;;;;;;7.15;6.00;;;;;;;;;;5070653;28;20044;-74
2023/04/08 04:15:50;;;;;;;11.70;9.35;;;;;;;;;;5085171;28;20410;-73
2023/04/08 04:18:16;;;;;;;9.98;8.10;;;;;;;;;;5072255;28;20407;-73
2023/04/08 04:20:42;;;;;;;9.88;7.63;;;;;;;;;;5068110;28;20032;-73
2023/04/08 04:23:09;;;;;;;9.38;6.85;;;;;;;;;;5089480;28;20167;-73
2023/04/08 04:25:35;;;;;;;11.30;9.07;;;;;;;;;;5089017;28;20040;-73
2023/04/08 04:28:02;;;;;;;16.73;11.32;;;;;;;;;;5087017;28;20072;-73
2023/04/08 04:30:28;;;;;;;12.50;9.45;;;;;;;;;;5070010;28;20871;-73
2023/04/08 04:32:55;;;;;;;13.80;10.50;;;;;;;;;;5072224;28;20395;-73
2023/04/08 04:35:21;;;;;;;14.18;11.30;;;;;;;;;;5077561;28;20117;-73
2023/04/08 04:37:49;;;;;;;15.02;11.15;;;;;;;;;;5083844;28;20040;-72
2023/04/08 04:40:15;;;;;;;17.25;13.35;;;;;;;;;;5068371;28;20055;-73
2023/04/08 04:42:41;;;;;;;14.30;11.00;;;;;;;;;;5056520;28;20153;-73
2023/04/08 04:45:08;;;;;;;13.82;10.68;;;;;;;;;;5077985;28;20412;-73
2023/04/08 04:47:34;;;;;;;13.25;10.00;;;;;;;;;;5091832;28;20432;-72
2023/04/08 04:50:00;;;;;;;14.35;11.32;;;;;;;;;;5073268;28;20048;-72
2023/04/08 04:52:26;;;;;;;14.35;11.48;;;;;;;;;;5072825;28;20142;-73
2023/04/08 04:54:52;;;;;;;16.45;13.25;;;;;;;;;;5075351;28;20123;-72
2023/04/08 04:57:18;;;;;;;15.35;12.25;;;;;;;;;;5076211;28;20044;-73
2023/04/08 04:59:45;;;;;;;13.43;10.82;;;;;;;;;;5073811;28;20214;-73
2023/04/08 05:02:11;;;;;;;12.20;9.75;;;;;;;;;;5075899;28;20040;-72
2023/04/08 05:04:37;;;;;;;8.90;7.53;;;;;;;;;;5092993;28;20032;-72
2023/04/08 05:07:03;;;;;;;9.48;7.00;;;;;;;;;;5057972;28;20124;-73
2023/04/08 05:09:29;;;;;;;7.75;6.15;;;;;;;;;;5089425;28;20044;-73
2023/04/08 05:11:55;;;;;;;;;;;;;;;;;;5085595;28;20088;-73
2023/04/08 05:14:21;;;;;;;10.77;7.93;;;;;;;;;;5075697;28;19988;-73
2023/04/08 05:16:47;;;;;;;9.38;6.63;;;;;;;;;;5092345;28;20054;-72
2023/04/08 05:19:13;;;;;;;7.95;6.65;;;;;;;;;;5092677;28;20036;-72
2023/04/08 05:21:39;;;;;;;12.10;9.20;;;;;;;;;;5073620;28;20064;-73
2023/04/08 05:24:06;;;;;;;11.50;8.25;;;;;;;;;;5093888;28;20056;-73
2023/04/08 05:26:32;;;;;;;8.90;6.68;;;;;;;;;;5087585;28;20151;-73
2023/04/08 05:28:58;;;;;;;7.28;6.03;;;;;;;;;;5091374;28;20130;-72
2023/04/08 05:31:24;;;;;;;9.23;6.30;;;;;;;;;;5082273;28;20063;-73
2023/04/08 05:33:50;;;;;;;12.50;9.20;;;;;;;;;;5071908;28;20122;-73
2023/04/08 05:36:16;;;;;;;12.88;9.95;;;;;;;;;;5084547;28;20060;-72
2023/04/08 05:38:43;;;;;;;14.18;10.10;;;;;;;;;;5075582;28;20388;-73
2023/04/08 05:41:09;;;;;;;16.95;12.57;;;;;;;;;;5084899;28;20040;-73
2023/04/08 05:43:36;;;;;;;18.33;11.98;;;;;;;;;;5071832;28;20040;-73
2023/04/08 05:46:08;;;;;;;13.82;10.45;;;;;;;;;;5077213;28;20036;-73
2023/04/08 05:48:35;;;;;;;10.88;8.23;;;;;;;;;;5059928;28;20123;-73
2023/04/08 05:51:01;;;;;;;9.95;7.82;;;;;;;;;;5075744;28;20040;-73
2023/04/08 05:53:27;;;;;;;12.15;9.82;;;;;;;;;;5076070;28;20086;-73
2023/04/08 05:55:53;;;;;;;15.82;11.70;;;;;;;;;;5061231;28;20071;-72
2023/04/08 05:58:19;;;;;;;14.27;10.75;;;;;;;;;;5055114;28;20067;-72
2023/04/08 06:00:45;;;;;;;20.50;14.35;;;;;;;;;;5073978;28;20074;-73
2023/04/08 06:03:11;;;;;;;21.83;15.88;;;;;;;;;;5054602;28;20568;-73
2023/04/08 06:05:37;;;;;;;14.45;12.07;;;;;;;;;;5078100;28;20036;-73
2023/04/08 06:08:04;;;;;;;14.23;10.50;;;;;;;;;;5084872;28;20040;-73
2023/04/08 06:10:30;;;;;;;13.73;10.18;;;;;;;;;;5072894;28;20055;-73
2023/04/08 06:12:56;;;;;;;14.07;10.93;;;;;;;;;;5074756;28;20044;-73
2023/04/08 06:15:22;;;;;;;13.55;9.82;;;;;;;;;;5072975;28;20127;-73
2023/04/08 06:17:48;;;;;;;12.85;10.30;;;;;;;;;;5076176;28;20518;-73
2023/04/08 06:20:14;;;;;;;12.50;9.80;;;;;;;;;;5041488;28;20064;-73
2023/04/08 06:22:40;;;;;;;10.70;9.38;;;;;;;;;;5077047;28;20048;-73
2023/04/08 06:25:07;;;;;;;15.10;11.95;;;;;;;;;;5077622;28;20044;-73
2023/04/08 06:27:33;;;;;;;14.23;10.38;;;;;;;;;;5079316;28;20092;-73
2023/04/08 06:29:59;;;;;;;12.80;10.00;;;;;;;;;;5076023;28;20036;-74
2023/04/08 06:32:25;;;;;;;12.05;10.20;;;;;;;;;;5072822;28;20048;-74
2023/04/08 06:34:51;;;;;;;11.30;8.88;;;;;;;;;;5073365;28;20432;-72
2023/04/08 06:37:17;;;;;;;12.10;9.80;;;;;;;;;;5077437;28;20049;-73
2023/04/08 06:39:43;;;;;;;20.92;13.60;;;;;;;;;;5078168;28;20044;-73
2023/04/08 06:42:09;;;;;;;14.75;12.30;;;;;;;;;;5060402;28;20042;-72
2023/04/08 06:44:35;;;;;;;14.90;12.30;;;;;;;;;;5063112;28;20063;-72
2023/04/08 06:47:01;;;;;;;14.23;10.57;;;;;;;;;;5087784;28;20136;-73
2023/04/08 06:49:28;;;;;;;11.35;9.23;;;;;;;;;;5090953;28;20063;-73
2023/04/08 06:51:54;;;;;;;12.30;10.07;;;;;;;;;;5083740;28;20040;-72
2023/04/08 06:54:20;;;;;;;11.85;9.82;;;;;;;;;;5088277;28;20063;-72
2023/04/08 06:56:46;;;;;;;12.88;9.93;;;;;;;;;;5072974;28;20047;-73
2023/04/08 06:59:12;;;;;;;11.13;9.52;;;;;;;;;;5081973;28;20051;-72
2023/04/08 07:01:38;;;;;;;11.23;9.45;;;;;;;;;;5055016;28;20032;-72
2023/04/08 07:04:05;;;;;;;13.95;10.75;;;;;;;;;;5073534;28;20460;-73
2023/04/08 07:06:31;;;;;;;10.52;8.55;;;;;;;;;;5071265;28;20044;-73
2023/04/08 07:08:57;;;;;;;11.23;9.13;;;;;;;;;;5070882;28;20043;-73
2023/04/08 07:11:23;;;;;;;13.68;10.85;;;;;;;;;;5080907;28;20048;-73
2023/04/08 07:13:49;;;;;;;14.07;10.73;;;;;;;;;;5072273;28;20067;-73
2023/04/08 07:16:15;;;;;;;14.30;11.02;;;;;;;;;;5072543;28;20110;-73
2023/04/08 07:18:42;;;;;;;14.65;10.90;;;;;;;;;;5071632;28;20123;-73
2023/04/08 07:21:08;;;;;;;12.23;10.10;;;;;;;;;;5076531;28;20065;-73
2023/04/08 07:23:34;;;;;;;10.63;9.00;;;;;;;;;;5076860;28;20056;-72
2023/04/08 07:26:04;;;;;;;10.38;9.27;;;;;;;;;;5074829;28;20497;-72
2023/04/08 07:28:30;;;;;;;11.82;9.15;;;;;;;;;;5065952;28;20115;-72
2023/04/08 07:30:56;;;;;;;10.75;9.02;;;;;;;;;;5069107;28;20059;-73
2023/04/08 07:33:23;;;;;;;10.20;8.85;;;;;;;;;;5073383;28;20036;-73
2023/04/08 07:35:48;;;;;;;;;;;;;;;;;;5072455;28;20075;-73
2023/04/08 07:38:15;;;;;;;12.23;10.55;;;;;;;;;;5075124;28;19960;-73
2023/04/08 07:40:41;;;;;;;12.60;10.15;;;;;;;;;;5077244;28;20048;-73
2023/04/08 07:43:08;;;;;;;10.93;8.90;;;;;;;;;;5060612;28;20036;-73
2023/04/08 07:45:34;;;;;;;9.48;7.47;;;;;;;;;;5064305;28;20053;-72
2023/04/08 07:48:00;;;;;;;11.75;9.75;;;;;;;;;;5074832;28;20653;-73
2023/04/08 07:50:26;;;;;;;11.93;9.32;;;;;;;;;;5087726;28;20040;-73
2023/04/08 07:52:52;;;;;;;11.13;9.13;;;;;;;;;;5080144;28;20452;-72
2023/04/08 07:55:19;;;;;;;10.18;8.77;;;;;;;;;;5078311;28;20441;-72
2023/04/08 07:57:45;;;;;;;11.85;8.00;;;;;;;;;;5069468;28;20062;-73
2023/04/08 08:00:11;;;;;;;9.63;8.25;;;;;;;;;;5055499;28;20041;-73
2023/04/08 08:02:37;;;;;;;9.75;8.00;;;;;;;;;;5065687;28;20039;-73
2023/04/08 08:05:03;;;;;;;10.43;8.38;;;;;;;;;;5061999;28;20055;-73
2023/04/08 08:07:29;;;;;;;11.13;9.18;;;;;;;;;;5074069;28;20137;-74
2023/04/08 08:09:55;;;;;;;9.70;7.68;;;;;;;;;;5077318;28;20137;-72
2023/04/08 08:12:21;;;;;;;10.20;8.02;;;;;;;;;;5055027;28;20082;-73
2023/04/08 08:14:47;;;;;;;9.43;7.70;;;;;;;;;;5072337;28;20064;-73
2023/04/08 08:17:14;;;;;;;9.10;7.00;;;;;;;;;;5055729;28;20040;-73
2023/04/08 08:19:40;;;;;;;9.02;6.80;;;;;;;;;;5069065;28;20046;-73
2023/04/08 08:22:06;;;;;;;8.32;6.22;;;;;;;;;;5084306;28;20479;-72
2023/04/08 08:24:32;;;;;;;7.50;6.30;;;;;;;;;;5069992;28;20036;-73
2023/04/08 08:26:58;;;;;;;10.23;8.55;;;;;;;;;;5073459;28;20542;-73
2023/04/08 08:29:24;;;;;;;8.77;7.30;;;;;;;;;;5068914;28;20189;-76
2023/04/08 08:31:50;;;;;;;;;;;;;;;;;;5071088;28;20078;-73
2023/04/08 08:34:16;;;;;;;8.25;6.53;;;;;;;;;;5071365;28;19920;-73
2023/04/08 08:36:42;;;;;;;10.48;8.50;;;;;;;;;;5073155;28;20132;-73
2023/04/08 08:39:08;;;;;;;9.13;7.78;;;;;;;;;;5052431;28;20070;-72
2023/04/08 08:41:36;;;;;;;9.10;6.95;;;;;;;;;;5068656;28;20036;-71
2023/04/08 08:44:05;;;;;;;10.35;8.63;;;;;;;;;;5068793;28;20053;-71
2023/04/08 08:46:31;;;;;;;9.52;7.88;;;;;;;;;;5068804;28;20091;-71
2023/04/08 08:48:57;;;;;;;8.38;5.93;;;;;;;;;;5064060;28;20041;-73
2023/04/08 08:51:23;;;;;;;8.27;6.63;;;;;;;;;;5079506;28;20040;-73
2023/04/08 08:53:49;;;;;;;;;;;;;;;;;;5088998;28;20517;-73
2023/04/08 08:56:15;;;;;;;12.68;10.35;;;;;;;;;;5055775;28;20004;-74
2023/04/08 08:58:41;;;;;;;10.98;9.20;;;;;;;;;;5064577;28;20087;-73
2023/04/08 09:01:32;;;;;;;9.50;7.15;;;;;;;;;;5075788;28;20063;-73
2023/04/08 09:04:21;;;;;;;10.30;7.97;;;;;;;;;;5080017;28;20117;-73
2023/04/08 09:07:07;;;;;;;10.20;8.05;;;;;;;;;;5074459;28;20040;-73
2023/04/08 09:09:50;;;;;;;13.43;9.15;;;;;;;;;;5071666;28;20055;-74
2023/04/08 09:12:16;;;;;;;12.27;9.63;;;;;;;;;;5088213;28;20087;-73
2023/04/08 09:14:42;;;;;;;11.30;8.55;;;;;;;;;;5091188;28;20028;-73
2023/04/08 09:17:08;;;;;;;9.77;7.70;;;;;;;;;;5070980;28;20131;-73
2023/04/08 09:19:34;;;;;;;10.38;8.40;;;;;;;;;;5079714;28;20045;-73
2023/04/08 09:22:04;;;;;;;10.52;8.35;;;;;;;;;;5073549;28;20098;-73
2023/04/08 09:24:30;;;;;;;11.40;8.93;;;;;;;;;;5086846;28;20065;-73
2023/04/08 09:26:57;;;;;;;12.07;9.57;;;;;;;;;;5091721;28;20071;-73
2023/04/08 09:29:23;;;;;;;8.10;6.68;;;;;;;;;;5092128;28;20058;-73
2023/04/08 09:31:53;;;;;;;9.00;7.03;;;;;;;;;;5091908;28;20044;-74
2023/04/08 09:34:20;;;;;;;10.02;7.85;;;;;;;;;;5092007;28;20123;-73
2023/04/08 09:36:48;;;;;;;8.50;6.72;;;;;;;;;;5085369;28;20051;-74
2023/04/08 09:39:14;;;;;;;8.73;6.97;;;;;;;;;;5092762;28;20076;-73
2023/04/08 09:41:40;;;;;;;6.68;5.50;;;;;;;;;;5091852;28;20044;-73
2023/04/08 09:44:08;;;;;;;8.68;5.97;;;;;;;;;;5084824;28;20047;-73
2023/04/08 09:46:49;;;;;;;5.07;3.92;;;;;;;;;;5071246;28;20049;-74
2023/04/08 09:49:26;;;;;;;5.43;4.40;;;;;;;;;;5071195;28;20044;-74
2023/04/08 09:51:59;;;;;;;5.25;4.13;;;;;;;;;;5071303;28;20123;-74
2023/04/08 09:54:31;;;;;;;9.40;7.55;;;;;;;;;;5073101;28;20055;-73
2023/04/08 09:57:08;;;;;;;12.23;8.60;;;;;;;;;;5101583;28;20051;-72
2023/04/08 09:59:36;;;;;;;10.23;7.55;;;;;;;;;;5075392;28;20039;-73
2023/04/08 10:02:06;;;;;;;9.45;7.72;;;;;;;;;;5091411;28;20075;-73
2023/04/08 10:04:35;;;;;;;11.00;8.63;;;;;;;;;;5062504;28;20392;-73
2023/04/08 10:07:04;;;;;;;10.73;8.05;;;;;;;;;;5071194;28;20473;-73
2023/04/08 10:09:31;;;;;;;10.77;8.30;;;;;;;;;;5074953;28;20447;-74
2023/04/08 10:11:57;;;;;;;10.25;8.05;;;;;;;;;;5092487;28;20575;-74
2023/04/08 10:14:27;;;;;;;8.80;7.07;;;;;;;;;;5092750;28;20052;-76
2023/04/08 10:17:13;;;;;;;10.20;6.82;;;;;;;;;;5074512;28;20044;-73
2023/04/08 10:19:40;;;;;;;10.13;7.50;;;;;;;;;;5070987;28;20125;-72
2023/04/08 10:22:25;;;;;;;9.23;7.00;;;;;;;;;;5077877;28;20055;-73
2023/04/08 10:25:10;;;;;;;11.85;8.93;;;;;;;;;;5085116;28;20101;-73
2023/04/08 10:27:40;;;;;;;11.38;7.88;;;;;;;;;;5082160;28;20064;-73
2023/04/08 10:30:26;;;;;;;10.48;7.35;;;;;;;;;;5058637;28;20484;-73
2023/04/08 10:32:55;;;;;;;11.43;8.45;;;;;;;;;;5080646;28;20040;-73
2023/04/08 10:35:31;;;;;;;10.85;7.15;;;;;;;;;;5079895;28;20048;-73
2023/04/08 10:37:58;;;;;;;8.57;7.15;;;;;;;;;;5061903;28;20379;-72
2023/04/08 10:40:25;;;;;;;11.30;8.25;;;;;;;;;;5080160;28;20071;-72
2023/04/08 10:42:57;;;;;;;8.75;6.57;;;;;;;;;;5080459;28;20043;-73
2023/04/08 10:45:24;;;;;;;8.57;6.68;;;;;;;;;;5081119;28;20028;-73
2023/04/08 10:47:51;;;;;;;10.93;7.82;;;;;;;;;;5062748;28;20058;-75
2023/04/08 10:50:18;;;;;;;10.70;7.75;;;;;;;;;;5079673;28;20044;-73
2023/04/08 10:52:48;;;;;;;11.70;8.98;;;;;;;;;;5082111;28;20047;-73
2023/04/08 10:55:15;;;;;;;9.65;7.72;;;;;;;;;;5079553;28;20041;-73
2023/04/08 10:57:41;;;;;;;9.05;7.32;;;;;;;;;;5079183;28;20483;-73
2023/04/08 11:00:11;;;;;;;11.48;8.38;;;;;;;;;;5081033;28;20075;-73
2023/04/08 11:02:40;;;;;;;9.38;6.60;;;;;;;;;;5079915;28;20032;-73
2023/04/08 11:05:09;;;;;;;13.25;10.32;;;;;;;;;;5079007;28;20032;-73
2023/04/08 11:07:41;;;;;;;12.80;9.18;;;;;;;;;;5079732;28;20032;-73
2023/04/08 11:10:08;;;;;;;12.13;8.60;;;;;;;;;;5078047;28;20123;-73
2023/04/08 11:12:36;;;;;;;10.88;8.20;;;;;;;;;;5077403;28;20506;-73
2023/04/08 11:15:03;;;;;;;10.82;7.57;;;;;;;;;;5072940;28;20500;-73
2023/04/08 11:17:29;;;;;;;10.52;8.23;;;;;;;;;;5070216;28;20048;-72
2023/04/08 11:20:00;;;;;;;9.52;7.60;;;;;;;;;;5069481;28;20098;-73
2023/04/08 11:22:27;;;;;;;10.25;8.40;;;;;;;;;;5086960;28;20123;-73
2023/04/08 11:24:55;;;;;;;10.63;8.50;;;;;;;;;;5071566;28;20069;-73
2023/04/08 11:27:24;;;;;;;9.27;7.22;;;;;;;;;;5089472;28;20051;-73
2023/04/08 11:29:51;;;;;;;9.88;6.88;;;;;;;;;;5072744;28;20044;-73
2023/04/08 11:32:17;;;;;;;;;;;;;;;;;;5089683;28;20071;-73
2023/04/08 11:34:43;;;;;;;12.82;9.95;;;;;;;;;;5089048;28;19962;-72
2023/04/08 11:37:09;;;;;;;13.80;9.73;;;;;;;;;;5088867;28;20483;-74
2023/04/08 11:39:41;;;;;;;15.27;9.88;;;;;;;;;;5069539;28;20457;-73
2023/04/08 11:42:07;;;;;;;12.32;8.88;;;;;;;;;;5079916;28;20116;-72
2023/04/08 11:44:33;;;;;;;16.42;11.27;;;;;;;;;;5080176;28;20388;-73
2023/04/08 11:47:01;;;;;;;13.70;9.65;;;;;;;;;;5077159;28;20036;-73
2023/04/08 11:49:27;;;;;;;12.25;8.75;;;;;;;;;;5079524;28;20055;-73
2023/04/08 11:51:54;;;;;;;9.82;7.35;;;;;;;;;;5078508;28;20116;-74
2023/04/08 11:54:30;;;;;;;10.95;7.97;;;;;;;;;;5081801;28;20044;-73
2023/04/08 11:56:57;;;;;;;11.98;8.60;;;;;;;;;;5087089;28;20861;-73
2023/04/08 11:59:24;;;;;;;12.23;8.30;;;;;;;;;;5076160;28;20044;-73
2023/04/08 12:01:51;;;;;;;10.25;7.53;;;;;;;;;;5067118;28;20036;-73
2023/04/08 12:04:17;;;;;;;15.18;10.75;;;;;;;;;;5055568;28;20396;-71
2023/04/08 12:06:45;;;;;;;16.20;10.52;;;;;;;;;;5072856;28;20071;-72
2023/04/08 12:09:12;;;;;;;16.77;11.65;;;;;;;;;;5087775;28;20507;-72
2023/04/08 12:11:38;;;;;;;16.27;12.05;;;;;;;;;;5086006;28;20056;-73
2023/04/08 12:14:04;;;;;;;16.27;12.18;;;;;;;;;;5084894;28;20058;-73
2023/04/08 12:16:30;;;;;;;17.73;12.48;;;;;;;;;;5069807;28;20110;-73
2023/04/08 12:18:56;;;;;;;15.60;11.63;;;;;;;;;;5074517;28;20044;-73
2023/04/08 12:21:22;;;;;;;11.93;10.20;;;;;;;;;;5078149;28;20132;-73
2023/04/08 12:23:48;;;;;;;16.65;12.05;;;;;;;;;;5053375;28;20380;-73
2023/04/08 12:26:14;;;;;;;16.65;11.65;;;;;;;;;;5070697;28;20031;-73
2023/04/08 12:28:40;;;;;;;12.57;9.77;;;;;;;;;;5053661;28;20036;-72
2023/04/08 12:31:07;;;;;;;15.80;10.55;;;;;;;;;;5069824;28;20058;-72
2023/04/08 12:33:33;;;;;;;13.55;10.68;;;;;;;;;;5085881;28;20411;-73
2023/04/08 12:35:59;;;;;;;11.32;8.68;;;;;;;;;;5061861;28;20040;-73
2023/04/08 12:38:25;;;;;;;;;;;;;;;;;;5076921;28;20108;-73
2023/04/08 12:40:52;;;;;;;11.20;8.90;;;;;;;;;;5056385;28;20307;-73
2023/04/08 12:43:18;;;;;;;;;;;;;;;;;;5083415;28;20132;-73
2023/04/08 12:45:44;;;;;;;13.07;9.77;;;;;;;;;;5080784;28;20002;-73
2023/04/08 12:48:10;;;;;;;10.90;8.88;;;;;;;;;;5077628;28;20104;-73
2023/04/08 12:50:36;;;;;;;14.63;10.52;;;;;;;;;;5076549;28;20460;-73
2023/04/08 12:53:02;;;;;;;12.65;9.75;;;;;;;;;;5077424;28;20093;-73
2023/04/08 12:55:28;;;;;;;11.23;9.10;;;;;;;;;;5074791;28;20047;-73
2023/04/08 12:57:55;;;;;;;10.02;8.35;;;;;;;;;;5058803;28;20115;-73
2023/04/08 13:00:21;;;;;;;8.30;6.97;;;;;;;;;;5076902;28;20071;-73
2023/04/08 13:02:47;;;;;;;10.40;9.00;;;;;;;;;;5066275;28;20115;-74
2023/04/08 13:05:13;;;;;;;14.27;9.13;;;;;;;;;;5082346;28;20040;-73
2023/04/08 13:07:40;;;;;;;10.68;8.48;;;;;;;;;;5079280;28;20046;-73
2023/04/08 13:10:06;;;;;;;9.40;7.75;;;;;;;;;;5083044;28;20056;-73
2023/04/08 13:12:32;;;;;;;9.88;7.82;;;;;;;;;;5078843;28;20080;-73
2023/04/08 13:15:00;;;;;;;9.73;7.85;;;;;;;;;;5079375;28;20044;-74
2023/04/08 13:17:26;;;;;;;9.90;7.22;;;;;;;;;;5065521;28;20058;-73
2023/04/08 13:19:52;;;;;;;8.25;7.00;;;;;;;;;;5056066;28;20488;-73
2023/04/08 13:22:19;;;;;;;8.05;6.00;;;;;;;;;;5080317;28;20036;-73
2023/04/08 13:24:45;;;;;;;6.80;5.97;;;;;;;;;;5079285;28;20480;-74
2023/04/08 13:27:11;;;;;;;10.77;8.35;;;;;;;;;;5086520;28;20070;-72
2023/04/08 13:29:37;;;;;;;11.00;8.98;;;;;;;;;;5080079;28;20036;-72
2023/04/08 13:32:03;;;;;;;7.97;6.78;;;;;;;;;;5062830;28;20097;-72
2023/04/08 13:34:29;;;;;;;8.65;6.80;;;;;;;;;;5076701;28;20542;-72
2023/04/08 13:36:56;;;;;;;7.32;6.13;;;;;;;;;;5062848;28;20093;-72
2023/04/08 13:39:22;;;;;;;6.32;5.10;;;;;;;;;;5064432;28;20043;-72
2023/04/08 13:41:48;;;;;;;5.40;4.88;;;;;;;;;;5079336;28;20077;-73
2023/04/08 13:44:15;;;;;;;5.15;4.13;;;;;;;;;;5076679;28;20089;-72
2023/04/08 13:46:42;;;;;;;4.55;3.85;;;;;;;;;;5079863;28;20119;-72
2023/04/08 13:49:08;;;;;;;6.80;5.22;;;;;;;;;;5065393;28;20288;-72
2023/04/08 13:51:34;;;;;;;;;;;;;;;;;;5079760;28;20040;-73
2023/04/08 13:54:00;;;;;;;6.50;5.28;;;;;;;;;;5064087;28;20031;-72
2023/04/08 13:56:26;;;;;;;9.40;7.65;;;;;;;;;;5081545;28;20037;-72
2023/04/08 13:58:52;;;;;;;8.43;7.10;;;;;;;;;;5075074;28;20039;-72
2023/04/08 14:01:19;;;;;;;7.50;6.50;;;;;;;;;;5080595;28;20487;-71
2023/04/08 14:03:45;;;;;;;11.02;8.35;;;;;;;;;;5063523;28;20032;-72
2023/04/08 14:06:11;;;;;;;11.32;9.50;;;;;;;;;;5062744;28;20040;-72
2023/04/08 14:08:37;;;;;;;8.82;7.93;;;;;;;;;;5057030;28;20050;-72
2023/04/08 14:11:03;;;;;;;9.52;7.63;;;;;;;;;;5063754;28;20043;-71
2023/04/08 14:13:29;;;;;;;7.15;6.22;;;;;;;;;;5074765;28;20060;-72
2023/04/08 14:15:57;;;;;;;6.95;5.53;;;;;;;;;;5082875;28;20052;-72
2023/04/08 14:18:23;;;;;;;8.63;6.78;;;;;;;;;;5075705;28;20052;-72
2023/04/08 14:20:49;;;;;;;9.57;7.30;;;;;;;;;;5073852;28;20068;-71
2023/04/08 14:23:15;;;;;;;9.82;7.03;;;;;;;;;;5060697;28;20085;-72
2023/04/08 14:25:41;;;;;;;12.80;10.05;;;;;;;;;;5078835;28;20116;-72
2023/04/08 14:28:07;;;;;;;10.23;7.70;;;;;;;;;;5072434;28;20035;-71
2023/04/08 14:30:34;;;;;;;8.85;7.95;;;;;;;;;;5079169;28;20048;-71
2023/04/08 14:33:01;;;;;;;9.55;8.50;;;;;;;;;;5079566;28;20032;-72
2023/04/08 14:35:27;;;;;;;10.15;9.07;;;;;;;;;;5087689;28;20036;-71
2023/04/08 14:37:53;;;;;;;9.10;7.82;;;;;;;;;;5074057;28;20376;-71